createdAt,value
2022-10-19T03:38:36.133Z,97881.03
2022-10-19T03:43:37.904Z,97881.03
2022-10-19T03:48:39.850Z,97874.7
2022-10-19T03:53:41.808Z,97874.7
2022-10-19T03:58:44.954Z,97877.33
2022-10-19T04:03:46.616Z,97877.33
2022-10-19T04:08:48.471Z,97885.67
2022-10-19T04:13:50.640Z,97875.48
2022-10-19T04:18:52.906Z,97875.48
2022-10-19T04:23:57.333Z,97879.67
2022-10-19T04:28:59.806Z,97879.67
2022-10-19T04:34:01.624Z,97889.34
2022-10-19T04:39:03.497Z,97889.34
2022-10-19T04:44:05.808Z,97880.16
2022-10-19T04:49:07.677Z,97880.16
2022-10-19T04:54:09.347Z,97892.48
2022-10-19T04:59:11.083Z,97892.48
2022-10-19T05:04:12.872Z,97880.12
2022-10-19T05:09:14.531Z,97880.12
2022-10-19T05:14:16.342Z,97892.13
2022-10-19T05:19:18.242Z,97892.13
2022-10-19T05:24:20.243Z,97890.67
2022-10-19T05:29:21.976Z,97908.91
2022-10-19T05:34:23.959Z,97908.91
2022-10-19T05:39:25.965Z,97912.56
2022-10-19T05:44:27.963Z,97912.56
2022-10-19T05:49:29.837Z,97918.17
2022-10-19T05:54:31.533Z,97918.17
2022-10-19T05:59:33.310Z,97930.11
2022-10-19T12:57:23.677Z,97829.61
2022-10-19T13:02:27.616Z,97829.61
2022-10-19T13:07:30.502Z,97831.98
2022-10-19T13:17:42.876Z,97836.88
2022-10-19T13:22:45.615Z,97836.88
2022-10-19T13:27:48.315Z,97833.23
2022-10-19T13:32:50.265Z,97837.45
2022-10-19T13:43:02.356Z,97831.25
2022-10-19T13:58:33.693Z,97826.41
2022-10-19T14:03:42.632Z,97828.17
2022-10-19T14:18:56.252Z,97840.14
2022-10-19T14:23:58.063Z,97819.49
2022-10-19T14:29:00.066Z,97819.49
2022-10-19T14:34:03.085Z,97821.22
2022-10-19T14:39:05.585Z,97822.77
2022-10-19T14:49:12.828Z,97823.19
2022-10-19T14:54:18.964Z,97823.19
2022-10-19T14:59:24.554Z,97821.75
2022-10-19T15:04:28.679Z,97821.75
2022-10-19T15:14:39.647Z,97824.59
2022-10-19T15:19:41.391Z,97817.52
2022-10-19T15:29:54.517Z,97839.32
2022-10-19T15:34:56.260Z,97825.77
2022-10-19T15:39:57.897Z,97825.77
2022-10-19T15:44:59.778Z,97796.11
2022-10-19T15:50:02.057Z,97796.11
2022-10-19T15:55:04.005Z,97814.34
2022-10-19T16:00:11.363Z,97814.34
2022-10-19T16:05:13.354Z,97839.77
2022-10-19T16:10:16.327Z,97839.77
2022-10-19T16:15:19.222Z,97870.42
2022-10-19T16:20:21.711Z,97870.42
2022-10-19T16:25:23.672Z,97876.33
2022-10-19T16:30:26.407Z,97876.33
2022-10-19T16:35:28.924Z,97894.89
2022-10-19T16:40:31.511Z,97894.89
2022-10-19T16:45:33.685Z,97919.52
2022-10-19T16:50:36.500Z,97920.19
2022-10-19T16:55:39.526Z,97920.19
2022-10-19T17:00:41.741Z,97909.69
2022-10-19T17:05:43.535Z,97909.69
2022-10-19T17:10:46.214Z,97906.95
2022-10-19T17:15:48.019Z,97906.95
2022-10-19T17:20:52.144Z,97905.48
2022-10-19T17:25:56.603Z,97905.48
2022-10-19T17:31:02.798Z,97914.45
2022-10-19T17:36:07.544Z,97914.45
2022-10-19T17:41:12.233Z,97941.4
2022-10-19T17:46:16.357Z,97941.4
2022-10-19T17:51:20.323Z,97941.09
2022-10-19T17:56:23.443Z,97962.91
2022-10-19T18:01:26.967Z,97962.91
2022-10-19T18:06:31.716Z,97958.57
2022-10-19T18:11:35.781Z,97958.57
2022-10-19T18:16:39.694Z,97969.55
2022-10-19T18:21:43.906Z,97969.55
2022-10-19T18:26:50.854Z,97975.7
2022-10-19T18:31:56.341Z,97975.7
2022-10-19T18:36:59.537Z,97976.58
2022-10-19T18:42:03.154Z,97976.58
2022-10-19T18:47:08.166Z,97984.52
2022-10-19T18:52:11.987Z,97984.52
2022-10-19T18:57:15.229Z,98011.22
2022-10-19T19:07:24.585Z,98019.39
2022-10-19T19:12:27.400Z,98012.75
2022-10-19T19:17:30.403Z,98012.75
2022-10-19T19:22:35.782Z,98011.83
2022-10-19T19:27:39.654Z,98011.83
2022-10-19T19:32:44.120Z,98040.13
2022-10-19T19:37:47.141Z,98040.13
2022-10-19T19:42:50.086Z,98039.52
2022-10-19T19:47:53.720Z,98039.52
2022-10-19T19:52:59.560Z,98063.58
2022-10-19T19:58:02.398Z,98063.58
2022-10-19T20:03:05.259Z,98054.45
2022-10-19T20:08:10.895Z,98091.99
2022-10-19T20:13:16.009Z,98091.99
2022-10-19T20:18:18.853Z,98112.19
2022-10-19T20:23:21.575Z,98112.19
2022-10-19T20:28:25.475Z,98110.26
2022-10-19T20:33:30.556Z,98110.26
2022-10-19T20:38:33.201Z,98109.86
2022-10-19T20:43:36.310Z,98109.86
2022-10-19T20:48:38.700Z,98109.86
2022-10-19T20:53:41.384Z,98109.86
2022-10-19T20:58:43.863Z,98109.86
2022-10-19T21:03:46.808Z,98109.86
2022-10-19T21:08:49.373Z,98109.86
2022-10-19T21:13:52.995Z,98109.86
2022-10-19T21:18:54.792Z,98109.86
2022-10-19T21:23:58.143Z,98109.86
2022-10-19T21:29:00.255Z,98109.86
2022-10-19T21:34:03.495Z,98109.86
